createdAt,value
2022-11-19T00:01:19.187Z,100629.53
2022-11-19T00:03:52.999Z,100630.89
2022-11-19T00:06:25.750Z,100628.08
2022-11-19T00:08:56.764Z,100627.67
2022-11-19T00:11:46.068Z,100628.54
2022-11-19T00:14:17.527Z,100630.93
2022-11-19T00:16:47.956Z,100629.67
2022-11-19T00:19:19.153Z,100632.38
2022-11-19T00:21:50.163Z,100632.30
2022-11-19T00:24:22.559Z,100635.58
2022-11-19T00:26:53.370Z,100635.85
2022-11-19T00:29:23.973Z,100634.60
2022-11-19T00:31:54.640Z,100633.36
2022-11-19T00:34:25.391Z,100637.81
2022-11-19T00:36:56.152Z,100641.17
2022-11-19T00:39:26.488Z,100646.23
2022-11-19T00:41:56.943Z,100646.10
2022-11-19T00:44:29.451Z,100648.23
2022-11-19T00:47:03.899Z,100651.02
2022-11-19T00:49:34.383Z,100651.52
2022-11-19T00:52:04.895Z,100653.40
2022-11-19T00:54:36.064Z,100653.50
2022-11-19T00:57:06.591Z,100659.78
2022-11-19T00:59:37.369Z,100659.95
2022-11-19T01:02:08.544Z,100657.86
2022-11-19T01:04:39.097Z,100659.84
2022-11-19T01:07:09.534Z,100667.80
2022-11-19T01:09:40.413Z,100668.56
2022-11-19T01:12:10.901Z,100670.27
2022-11-19T01:14:42.186Z,100666.89
2022-11-19T01:17:12.622Z,100666.75
2022-11-19T01:19:43.653Z,100670.52
2022-11-19T01:22:14.485Z,100675.59
2022-11-19T01:24:45.396Z,100673.09
2022-11-19T01:27:15.751Z,100670.56
2022-11-19T01:29:46.288Z,100671.34
2022-11-19T01:32:16.794Z,100672.67
2022-11-19T01:34:47.173Z,100673.20
2022-11-19T01:37:17.924Z,100674.83
2022-11-19T01:39:48.411Z,100678.97
2022-11-19T01:42:39.730Z,100684.30
2022-11-19T01:45:19.420Z,100685.64
2022-11-19T01:47:50.097Z,100686.85
2022-11-19T01:50:21.554Z,100687.94
2022-11-19T01:52:52.978Z,100685.05
2022-11-19T01:55:23.845Z,100688.34
2022-11-19T01:57:58.880Z,100685.72
2022-11-19T02:00:30.149Z,100686.29
2022-11-19T02:03:00.984Z,100685.16
2022-11-19T02:05:31.913Z,100681.77
2022-11-19T02:08:07.306Z,100685.54
2022-11-19T02:10:48.192Z,100690.58
2022-11-19T02:13:28.119Z,100689.37
2022-11-19T02:16:05.319Z,100690.01
2022-11-19T02:18:46.282Z,100689.77
2022-11-19T02:21:35.942Z,100690.56
2022-11-19T02:24:41.235Z,100689.66
2022-11-19T02:27:36.644Z,100689.67
2022-11-19T02:30:10.641Z,100690.31
2022-11-19T02:32:50.404Z,100689.75
2022-11-19T02:35:29.410Z,100695.17
2022-11-19T02:38:04.631Z,100696.96
2022-11-19T02:40:40.868Z,100703.52
2022-11-19T02:43:18.808Z,100701.76
2022-11-19T02:45:54.459Z,100711.58
2022-11-19T02:48:28.139Z,100704.58
2022-11-19T02:51:02.505Z,100707.30
2022-11-19T02:53:33.458Z,100707.71
2022-11-19T02:56:17.683Z,100710.39
2022-11-19T02:59:09.921Z,100710.71
2022-11-19T03:02:02.431Z,100712.52
2022-11-19T03:04:33.835Z,100716.15
2022-11-19T03:07:11.934Z,100717.06
2022-11-19T03:09:43.321Z,100720.10
2022-11-19T03:12:23.460Z,100725.91
2022-11-19T03:15:16.300Z,100726.19
2022-11-19T03:18:05.285Z,100725.77
2022-11-19T03:20:39.430Z,100730.73
2022-11-19T03:23:18.216Z,100729.80
2022-11-19T03:25:54.452Z,100721.73
2022-11-19T03:28:30.039Z,100723.27
2022-11-19T03:31:02.848Z,100723.41
2022-11-19T03:33:36.065Z,100727.01
2022-11-19T03:36:12.499Z,100729.55
2022-11-19T03:38:48.042Z,100737.86
2022-11-19T03:41:21.168Z,100737.63
2022-11-19T03:43:58.335Z,100741.44
2022-11-19T03:46:32.077Z,100742.42
2022-11-19T03:49:03.688Z,100740.46
2022-11-19T03:51:42.043Z,100743.09
2022-11-19T03:54:13.281Z,100748.78
2022-11-19T03:56:46.235Z,100760.23
2022-11-19T03:59:17.620Z,100761.45
2022-11-19T04:01:52.078Z,100763.78
2022-11-19T04:04:38.032Z,100764.58
2022-11-19T04:07:13.532Z,100765.09
2022-11-19T04:09:45.334Z,100767.10
2022-11-19T04:12:18.756Z,100763.01
2022-11-19T04:14:49.656Z,100767.37
2022-11-19T04:17:20.969Z,100769.73
2022-11-19T04:19:51.578Z,100776.08
2022-11-19T04:22:22.264Z,100777.85
2022-11-19T04:24:53.464Z,100778.27
2022-11-19T04:27:24.447Z,100775.20
2022-11-19T04:29:54.753Z,100774.77
2022-11-19T04:32:25.087Z,100771.66
2022-11-19T04:34:55.650Z,100773.83
2022-11-19T04:37:25.938Z,100770.60
2022-11-19T04:39:56.235Z,100767.95
2022-11-19T04:42:26.862Z,100769.69
2022-11-19T04:44:57.447Z,100767.95
2022-11-19T04:47:28.171Z,100768.73
2022-11-19T04:49:58.500Z,100764.58
2022-11-19T04:52:28.833Z,100762.86
2022-11-19T04:54:59.165Z,100766.42
2022-11-19T04:57:29.496Z,100768.82
2022-11-19T05:00:00.385Z,100767.85
2022-11-19T05:02:30.752Z,100764.83
2022-11-19T05:05:01.538Z,100761.35
2022-11-19T05:07:32.334Z,100759.48
2022-11-19T05:10:03.567Z,100761.11
2022-11-19T05:12:33.977Z,100760.66
2022-11-19T05:15:05.505Z,100757.17
2022-11-19T05:17:35.892Z,100758.70
2022-11-19T05:20:08.030Z,100756.52
2022-11-19T05:22:38.562Z,100755.89
2022-11-19T05:25:10.839Z,100756.35
2022-11-19T05:27:41.333Z,100754.58
2022-11-19T05:30:14.300Z,100751.25
2022-11-19T05:32:45.088Z,100755.33
2022-11-19T05:35:16.179Z,100760.18
2022-11-19T05:37:49.172Z,100763.44
2022-11-19T05:40:20.620Z,100767.60
2022-11-19T05:42:51.680Z,100770.23
2022-11-19T05:45:22.706Z,100775.90
2022-11-19T05:47:57.506Z,100775.55
2022-11-19T05:50:28.063Z,100777.67
2022-11-19T05:53:00.025Z,100776.65
2022-11-19T05:55:30.664Z,100776.23
2022-11-19T05:58:01.608Z,100783.42
2022-11-19T06:00:32.332Z,100785.48
2022-11-19T06:03:03.423Z,100782.26
2022-11-19T06:05:39.835Z,100784.06
2022-11-19T06:08:10.815Z,100788.23
2022-11-19T06:10:41.696Z,100795.27
2022-11-19T06:13:12.787Z,100799.45
2022-11-19T06:15:43.905Z,100800.00
2022-11-19T06:18:14.903Z,100803.27
2022-11-19T06:20:45.748Z,100796.87
2022-11-19T06:23:16.540Z,100798.63
2022-11-19T06:25:48.784Z,100799.67
2022-11-19T06:28:19.933Z,100799.60
2022-11-19T06:30:50.594Z,100800.10
2022-11-19T06:33:21.475Z,100805.58
2022-11-19T06:35:52.576Z,100808.59
2022-11-19T06:38:23.023Z,100806.44
2022-11-19T06:40:53.362Z,100806.74
2022-11-19T06:43:23.736Z,100806.11
2022-11-19T06:45:54.027Z,100811.45
2022-11-19T06:48:24.673Z,100819.14
2022-11-19T06:50:55.410Z,100820.81
2022-11-19T06:53:25.850Z,100822.99
2022-11-19T06:56:00.769Z,100827.46
2022-11-19T06:58:31.608Z,100823.82
2022-11-19T07:01:02.443Z,100826.84
2022-11-19T07:03:32.880Z,100828.05
2022-11-19T07:06:05.904Z,100824.86
2022-11-19T07:08:39.260Z,100827.01
2022-11-19T07:11:28.196Z,100826.12
2022-11-19T07:14:00.212Z,100830.27
2022-11-19T07:16:34.433Z,100831.67
2022-11-19T07:19:07.124Z,100837.06
2022-11-19T07:21:38.150Z,100844.08
2022-11-19T07:24:10.730Z,100840.89
2022-11-19T07:26:41.258Z,100841.02
2022-11-19T07:29:14.824Z,100842.20
2022-11-19T07:31:49.543Z,100844.64
2022-11-19T07:34:20.500Z,100845.36
2022-11-19T07:36:51.622Z,100847.92
2022-11-19T07:39:22.558Z,100845.85
2022-11-19T07:42:11.412Z,100843.23
2022-11-19T07:44:41.960Z,100842.46
2022-11-19T07:47:12.697Z,100843.79
2022-11-19T07:49:43.072Z,100846.02
2022-11-19T07:52:13.937Z,100849.15
2022-11-19T07:54:44.656Z,100848.23
2022-11-19T07:57:15.243Z,100847.14
2022-11-19T07:59:46.060Z,100850.75
2022-11-19T08:02:16.971Z,100847.27
2022-11-19T08:04:47.611Z,100850.82
2022-11-19T08:07:18.427Z,100850.87
2022-11-19T08:09:49.139Z,100854.83
2022-11-19T08:12:19.527Z,100850.24
2022-11-19T08:14:49.827Z,100843.96
2022-11-19T08:17:37.947Z,100846.59
2022-11-19T08:20:10.416Z,100847.01
2022-11-19T08:22:42.106Z,100841.85
2022-11-19T08:25:12.766Z,100839.42
2022-11-19T08:27:43.220Z,100842.47
2022-11-19T08:30:15.896Z,100838.05
2022-11-19T08:32:46.407Z,100837.19
2022-11-19T08:35:17.185Z,100836.54
2022-11-19T08:37:49.823Z,100833.59
2022-11-19T08:40:20.758Z,100839.71
2022-11-19T08:43:01.544Z,100841.52
2022-11-19T08:45:35.017Z,100837.14
2022-11-19T08:48:07.320Z,100835.55
2022-11-19T08:50:37.868Z,100833.23
2022-11-19T08:53:08.375Z,100832.52
2022-11-19T08:55:38.898Z,100824.92
2022-11-19T08:58:09.949Z,100823.96
2022-11-19T09:00:40.538Z,100820.55
2022-11-19T09:03:11.088Z,100825.67
2022-11-19T09:05:41.531Z,100829.29
2022-11-19T09:08:11.978Z,100833.77
2022-11-19T09:10:42.439Z,100835.52
2022-11-19T09:13:13.607Z,100834.72
2022-11-19T09:15:44.311Z,100830.89
2022-11-19T09:18:14.972Z,100827.25
2022-11-19T09:20:46.169Z,100821.56
2022-11-19T09:23:16.774Z,100823.71
2022-11-19T09:25:55.439Z,100830.40
2022-11-19T09:28:26.479Z,100835.03
2022-11-19T09:31:02.297Z,100835.39
2022-11-19T09:33:34.313Z,100837.86
2022-11-19T09:36:05.446Z,100839.34
2022-11-19T09:38:36.955Z,100835.79
2022-11-19T09:41:29.580Z,100836.91
2022-11-19T09:44:08.903Z,100835.91
2022-11-19T09:46:48.536Z,100837.69
2022-11-19T09:49:25.990Z,100838.79
2022-11-19T09:52:02.690Z,100837.58
2022-11-19T09:54:34.447Z,100835.41
2022-11-19T09:57:13.704Z,100836.34
2022-11-19T09:59:44.632Z,100832.95
2022-11-19T10:02:19.548Z,100833.31
2022-11-19T10:04:52.098Z,100826.84
2022-11-19T10:07:32.153Z,100816.00
2022-11-19T10:10:19.918Z,100818.43
2022-11-19T10:13:11.873Z,100816.20
2022-11-19T10:15:56.405Z,100811.79
2022-11-19T10:18:36.225Z,100808.67
2022-11-19T10:21:12.570Z,100806.19
2022-11-19T10:23:54.710Z,100808.42
2022-11-19T10:26:33.699Z,100810.24
2022-11-19T10:29:12.269Z,100807.64
2022-11-19T10:31:47.555Z,100820.39
2022-11-19T10:34:23.302Z,100823.45
2022-11-19T10:36:59.324Z,100826.48
2022-11-19T10:39:33.377Z,100830.41
2022-11-19T10:42:14.423Z,100827.52
2022-11-19T10:44:50.737Z,100828.05
2022-11-19T10:47:24.146Z,100825.91
2022-11-19T10:49:56.141Z,100819.11
2022-11-19T10:52:30.954Z,100818.54
2022-11-19T10:55:13.326Z,100820.21
2022-11-19T10:57:44.930Z,100819.16
2022-11-19T11:00:18.274Z,100818.52
2022-11-19T11:02:52.548Z,100820.23
2022-11-19T11:05:23.075Z,100814.44
2022-11-19T11:07:57.165Z,100808.25
2022-11-19T11:10:42.698Z,100802.09
2022-11-19T11:14:02.295Z,100801.03
2022-11-19T11:16:47.818Z,100798.10
2022-11-19T11:19:23.239Z,100792.52
2022-11-19T11:21:56.788Z,100784.89
2022-11-19T11:24:34.059Z,100785.19
2022-11-19T11:27:26.146Z,100778.08
2022-11-19T11:30:16.458Z,100777.07
2022-11-19T11:32:47.848Z,100772.12
2022-11-19T11:35:37.805Z,100765.82
2022-11-19T11:38:10.236Z,100766.27
2022-11-19T11:40:41.661Z,100767.38
2022-11-19T11:43:19.122Z,100770.85
2022-11-19T11:45:57.116Z,100764.50
2022-11-19T11:48:31.676Z,100757.64
2022-11-19T11:51:02.158Z,100752.17
2022-11-19T11:53:34.773Z,100749.92
2022-11-19T11:56:06.280Z,100746.45
2022-11-19T11:58:37.211Z,100745.98
2022-11-19T12:01:18.204Z,100743.43
2022-11-19T12:03:59.838Z,100738.06
2022-11-19T12:06:40.963Z,100735.52
2022-11-19T12:09:20.597Z,100736.08
2022-11-19T12:11:58.958Z,100735.39
2022-11-19T12:14:31.315Z,100741.64
2022-11-19T12:17:16.852Z,100737.13
2022-11-19T12:20:04.143Z,100737.98
2022-11-19T12:22:46.102Z,100732.71
2022-11-19T12:25:31.709Z,100730.59
2022-11-19T12:28:23.106Z,100737.52
2022-11-19T12:31:07.261Z,100733.89
2022-11-19T12:33:51.617Z,100731.94
2022-11-19T12:36:31.054Z,100732.93
2022-11-19T12:39:08.372Z,100732.59
2022-11-19T12:42:10.227Z,100728.46
2022-11-19T12:44:55.697Z,100727.46
2022-11-19T12:47:45.144Z,100724.78
2022-11-19T12:50:27.569Z,100722.45
2022-11-19T12:53:13.262Z,100726.57
2022-11-19T12:55:54.266Z,100724.29
2022-11-19T12:58:36.117Z,100724.83
2022-11-19T13:01:11.406Z,100729.98
2022-11-19T13:03:53.527Z,100722.68
2022-11-19T13:06:30.032Z,100722.73
2022-11-19T13:09:03.876Z,100722.46
2022-11-19T13:11:38.031Z,100725.39
2022-11-19T13:14:15.099Z,100721.11
2022-11-19T13:16:46.072Z,100726.71
2022-11-19T13:19:23.713Z,100718.41
2022-11-19T13:21:58.486Z,100721.42
2022-11-19T13:24:33.589Z,100716.07
2022-11-19T13:27:07.412Z,100721.77
2022-11-19T13:29:43.107Z,100719.79
2022-11-19T13:32:21.487Z,100720.55
2022-11-19T13:35:14.577Z,100717.65
2022-11-19T13:37:58.460Z,100715.84
2022-11-19T13:40:35.971Z,100713.75
2022-11-19T13:43:32.247Z,100712.76
2022-11-19T13:46:12.293Z,100710.55
2022-11-19T13:48:45.393Z,100708.77
2022-11-19T13:51:27.995Z,100705.64
2022-11-19T13:54:02.900Z,100706.60
2022-11-19T13:56:44.958Z,100703.96
2022-11-19T13:59:39.539Z,100705.64
2022-11-19T14:02:40.435Z,100706.63
2022-11-19T14:05:32.384Z,100708.39
2022-11-19T14:08:17.595Z,100703.02
2022-11-19T14:11:02.410Z,100702.26
2022-11-19T14:13:57.235Z,100706.06
2022-11-19T14:16:58.103Z,100705.83
2022-11-19T14:19:47.096Z,100700.67
2022-11-19T14:22:58.905Z,100702.38
2022-11-19T14:28:48.316Z,100706.06
2022-11-19T14:31:21.289Z,100699.48
2022-11-19T14:34:04.343Z,100698.12
2022-11-19T14:36:47.637Z,100697.89
2022-11-19T14:39:24.740Z,100699.08
2022-11-19T14:42:15.626Z,100701.94
2022-11-19T14:44:46.943Z,100699.27
2022-11-19T14:47:36.044Z,100694.31
2022-11-19T14:50:09.712Z,100691.30
2022-11-19T14:52:52.110Z,100694.64
2022-11-19T14:55:25.060Z,100695.16
2022-11-19T14:58:02.031Z,100695.95
2022-11-19T15:00:36.184Z,100693.61
2022-11-19T15:03:09.677Z,100694.99
2022-11-19T15:05:44.566Z,100695.62
2022-11-19T15:08:50.004Z,100694.80
2022-11-19T15:11:21.274Z,100689.89
2022-11-19T15:14:29.430Z,100683.61
2022-11-19T15:17:04.188Z,100686.25
2022-11-19T15:19:47.025Z,100682.88
2022-11-19T15:22:32.243Z,100677.75
2022-11-19T15:25:35.498Z,100675.60
2022-11-19T15:28:16.657Z,100679.77
2022-11-19T15:30:59.386Z,100674.17
2022-11-19T15:33:59.705Z,100670.56
2022-11-19T15:36:36.346Z,100665.83
2022-11-19T15:39:13.793Z,100664.11
2022-11-19T15:42:00.554Z,100662.94
2022-11-19T15:44:40.653Z,100661.69
2022-11-19T15:47:18.607Z,100662.08
2022-11-19T15:49:49.984Z,100660.35
2022-11-19T15:52:27.105Z,100661.84
2022-11-19T15:55:13.362Z,100648.69
2022-11-19T15:57:46.343Z,100649.85
2022-11-19T16:00:21.063Z,100648.67
2022-11-19T16:02:54.455Z,100652.47
2022-11-19T16:05:28.109Z,100649.49
2022-11-19T16:07:59.934Z,100649.20
2022-11-19T16:10:34.809Z,100656.69
2022-11-19T16:13:38.905Z,100653.99
2022-11-19T16:16:39.783Z,100656.34
2022-11-19T16:19:13.769Z,100655.91
2022-11-19T16:21:46.377Z,100652.79
2022-11-19T16:24:52.120Z,100650.81
2022-11-19T16:27:24.485Z,100647.58
2022-11-19T16:29:55.729Z,100652.44
2022-11-19T16:32:28.897Z,100652.77
2022-11-19T16:35:20.560Z,100653.27
2022-11-19T16:37:51.980Z,100653.21
2022-11-19T16:40:23.856Z,100652.71
2022-11-19T16:42:57.049Z,100651.81
2022-11-19T16:45:29.498Z,100653.05
2022-11-19T16:48:02.031Z,100652.39
2022-11-19T16:50:35.910Z,100650.05
2022-11-19T16:53:07.662Z,100644.81
2022-11-19T16:55:52.874Z,100646.40
2022-11-19T16:58:29.097Z,100647.18
2022-11-19T17:01:01.237Z,100649.21
2022-11-19T17:03:39.568Z,100641.72
2022-11-19T17:06:20.946Z,100644.41
2022-11-19T17:08:59.738Z,100640.21
2022-11-19T17:12:06.039Z,100642.16
2022-11-19T17:15:00.540Z,100647.98
2022-11-19T17:17:40.394Z,100651.45
2022-11-19T17:21:01.275Z,100648.88
2022-11-19T17:23:33.916Z,100645.67
2022-11-19T17:26:06.807Z,100648.75
2022-11-19T17:28:41.727Z,100649.70
2022-11-19T17:31:20.482Z,100647.94
2022-11-19T17:33:56.083Z,100645.91
2022-11-19T17:36:27.679Z,100650.95
2022-11-19T17:38:58.198Z,100651.59
2022-11-19T17:41:47.861Z,100655.48
2022-11-19T17:44:35.578Z,100642.52
2022-11-19T17:47:21.274Z,100648.00
2022-11-19T17:49:53.563Z,100646.23
2022-11-19T17:52:26.617Z,100654.24
2022-11-19T17:54:59.129Z,100648.24
2022-11-19T17:57:29.548Z,100645.10
2022-11-19T18:00:00.616Z,100643.17
2022-11-19T18:02:31.630Z,100644.11
2022-11-19T18:05:02.687Z,100649.36
2022-11-19T18:07:33.415Z,100644.55
2022-11-19T18:10:03.955Z,100646.88
2022-11-19T18:12:34.290Z,100648.52
2022-11-19T18:15:05.527Z,100640.33
2022-11-19T18:17:36.155Z,100639.98
2022-11-19T18:20:09.604Z,100643.59
2022-11-19T18:22:40.798Z,100644.17
2022-11-19T18:25:17.341Z,100644.23
2022-11-19T18:27:48.463Z,100645.91
2022-11-19T18:30:20.087Z,100645.40
2022-11-19T18:32:50.584Z,100644.89
2022-11-19T18:35:22.569Z,100643.04
2022-11-19T18:37:52.976Z,100646.15
2022-11-19T18:40:23.681Z,100641.06
2022-11-19T18:43:11.945Z,100639.30
2022-11-19T18:45:42.342Z,100639.34
2022-11-19T18:48:12.751Z,100637.20
2022-11-19T18:50:43.176Z,100638.56
2022-11-19T18:53:14.340Z,100641.04
2022-11-19T18:55:47.190Z,100640.64
2022-11-19T18:58:17.594Z,100636.70
2022-11-19T19:00:48.210Z,100635.86
2022-11-19T19:03:18.581Z,100636.91
2022-11-19T19:05:49.656Z,100640.66
2022-11-19T19:08:20.038Z,100638.97
2022-11-19T19:10:50.666Z,100639.62
2022-11-19T19:13:21.277Z,100638.69
2022-11-19T19:15:51.624Z,100642.15
2022-11-19T19:18:22.169Z,100648.77
2022-11-19T19:20:52.584Z,100645.23
2022-11-19T19:23:23.793Z,100650.58
2022-11-19T19:25:54.328Z,100646.45
2022-11-19T19:28:25.075Z,100646.04
2022-11-19T19:31:00.755Z,100649.08
2022-11-19T19:33:32.149Z,100651.21
2022-11-19T19:36:04.676Z,100655.69
2022-11-19T19:38:35.679Z,100652.16
2022-11-19T19:41:12.518Z,100653.66
2022-11-19T19:43:43.502Z,100654.86
2022-11-19T19:46:17.007Z,100658.48
2022-11-19T19:48:49.222Z,100657.67
2022-11-19T19:51:20.821Z,100663.06
2022-11-19T19:53:51.274Z,100664.80
2022-11-19T19:56:23.596Z,100659.40
2022-11-19T19:58:54.650Z,100657.98
2022-11-19T20:01:26.542Z,100656.88
2022-11-19T20:04:00.424Z,100657.21
2022-11-19T20:06:31.844Z,100659.88
2022-11-19T20:09:07.910Z,100662.22
2022-11-19T20:11:39.856Z,100656.84
2022-11-19T20:14:10.544Z,100660.08
2022-11-19T20:16:42.619Z,100661.23
2022-11-19T20:19:17.582Z,100666.31
2022-11-19T20:21:48.205Z,100668.11
2022-11-19T20:24:20.120Z,100664.23
2022-11-19T20:26:50.525Z,100660.77
2022-11-19T20:29:22.334Z,100662.17
2022-11-19T20:31:53.089Z,100661.63
2022-11-19T20:34:23.868Z,100666.23
2022-11-19T20:36:54.498Z,100666.54
2022-11-19T20:39:24.883Z,100664.19
2022-11-19T20:42:12.735Z,100663.59
2022-11-19T20:44:41.572Z,100659.90
2022-11-19T20:47:11.980Z,100661.41
2022-11-19T20:49:42.308Z,100664.73
2022-11-19T20:52:13.497Z,100662.88
2022-11-19T20:54:44.236Z,100659.02
2022-11-19T20:57:14.662Z,100659.48
2022-11-19T20:59:45.360Z,100658.42
2022-11-19T21:02:15.724Z,100661.83
2022-11-19T21:04:46.151Z,100659.98
2022-11-19T21:07:16.828Z,100654.61
2022-11-19T21:09:47.155Z,100649.27
2022-11-19T21:12:17.634Z,100646.87
2022-11-19T21:14:48.033Z,100645.59
2022-11-19T21:17:18.819Z,100646.81
2022-11-19T21:19:49.358Z,100645.71
2022-11-19T21:22:19.709Z,100640.96
2022-11-19T21:24:50.283Z,100638.90
2022-11-19T21:27:20.615Z,100639.13
2022-11-19T21:29:51.964Z,100635.00
2022-11-19T21:32:22.699Z,100632.05
2022-11-19T21:34:53.719Z,100629.14
2022-11-19T21:37:24.427Z,100628.60
2022-11-19T21:39:54.743Z,100624.40
2022-11-19T21:42:25.546Z,100621.67
2022-11-19T21:44:55.938Z,100626.34
2022-11-19T21:47:26.760Z,100622.02
2022-11-19T21:50:00.054Z,100623.60
2022-11-19T21:52:30.845Z,100622.98
2022-11-19T21:55:01.520Z,100617.02
2022-11-19T21:57:32.536Z,100615.52
2022-11-19T22:00:03.303Z,100611.34
2022-11-19T22:02:34.070Z,100610.40
2022-11-19T22:05:04.950Z,100613.11
2022-11-19T22:07:36.060Z,100611.33
2022-11-19T22:10:08.295Z,100608.87
2022-11-19T22:12:38.991Z,100606.16
2022-11-19T22:15:11.946Z,100605.85
2022-11-19T22:17:42.567Z,100605.73
2022-11-19T22:20:14.569Z,100600.99
2022-11-19T22:22:45.319Z,100602.75
2022-11-19T22:25:16.055Z,100606.89
2022-11-19T22:27:46.453Z,100605.54
2022-11-19T22:30:17.572Z,100607.36
2022-11-19T22:32:48.369Z,100596.13
2022-11-19T22:35:18.838Z,100601.73
2022-11-19T22:37:49.237Z,100603.41
2022-11-19T22:40:20.224Z,100602.71
2022-11-19T22:42:50.655Z,100602.14
2022-11-19T22:45:20.987Z,100603.91
2022-11-19T22:47:51.343Z,100607.45
2022-11-19T22:50:21.764Z,100606.81
2022-11-19T22:52:52.216Z,100609.08
2022-11-19T22:55:22.996Z,100610.66
2022-11-19T22:57:53.451Z,100610.02
2022-11-19T23:00:42.133Z,100612.08
2022-11-19T23:03:13.798Z,100616.35
2022-11-19T23:05:46.627Z,100617.48
2022-11-19T23:08:17.592Z,100615.14
2022-11-19T23:10:48.460Z,100612.71
2022-11-19T23:13:34.754Z,100612.52
2022-11-19T23:16:07.863Z,100610.21
2022-11-19T23:18:40.178Z,100610.13
2022-11-19T23:21:13.140Z,100604.44
2022-11-19T23:23:44.340Z,100604.59
2022-11-19T23:26:16.878Z,100600.98
2022-11-19T23:28:47.498Z,100599.46
2022-11-19T23:31:20.125Z,100600.49
2022-11-19T23:33:58.545Z,100595.73
2022-11-19T23:36:31.031Z,100594.78
2022-11-19T23:39:01.809Z,100593.11
2022-11-19T23:41:34.282Z,100587.27
2022-11-19T23:44:04.885Z,100585.86
2022-11-19T23:46:37.217Z,100585.48
2022-11-19T23:49:08.176Z,100591.40
2022-11-19T23:51:40.375Z,100587.79
2022-11-19T23:54:12.486Z,100581.90
2022-11-19T23:56:43.107Z,100583.02
2022-11-19T23:59:13.951Z,100584.23
